createdAt,value
2019-05-12T00:00:43.707Z,13.05
2019-05-12T00:03:12.328Z,13.03
2019-05-12T00:05:41.173Z,13.68
2019-05-12T00:08:09.781Z,13.35
2019-05-12T00:10:38.957Z,13.47
2019-05-12T00:13:08.301Z,13.64
2019-05-12T00:15:38.519Z,13.62
2019-05-12T00:18:09.119Z,13.86
2019-05-12T00:20:38.647Z,14.06
2019-05-12T00:23:23.093Z,13.68
2019-05-12T00:25:38.746Z,12.36
2019-05-12T00:28:07.924Z,12.67
2019-05-12T00:30:39.653Z,12.64
2019-05-12T00:33:09.207Z,12.70
2019-05-12T00:35:38.339Z,12.45
2019-05-12T00:38:09.127Z,12.93
2019-05-12T00:40:39.213Z,13.19
2019-05-12T00:43:08.769Z,13.54
2019-05-12T00:45:38.557Z,13.47
2019-05-12T00:48:09.268Z,13.27
2019-05-12T00:50:38.334Z,12.07
2019-05-12T00:53:09.121Z,12.20
2019-05-12T00:55:38.232Z,12.66
2019-05-12T00:58:08.211Z,12.67
2019-05-12T01:00:40.668Z,13.10
2019-05-12T01:03:08.950Z,12.08
2019-05-12T01:05:38.283Z,12.95
2019-05-12T01:08:09.124Z,12.76
2019-05-12T01:10:38.933Z,13.26
2019-05-12T01:13:08.784Z,12.50
2019-05-12T01:15:38.084Z,12.45
2019-05-12T01:18:09.468Z,12.97
2019-05-12T01:20:38.976Z,12.84
2019-05-12T01:23:08.481Z,11.77
2019-05-12T01:25:39.419Z,12.49
2019-05-12T01:28:08.896Z,11.87
2019-05-12T01:30:38.990Z,11.97
2019-05-12T01:33:08.700Z,12.10
2019-05-12T01:35:38.719Z,12.71
2019-05-12T01:38:08.322Z,12.50
2019-05-12T01:40:39.402Z,12.71
2019-05-12T01:43:08.566Z,12.89
2019-05-12T01:45:38.179Z,12.20
2019-05-12T01:48:08.751Z,12.48
2019-05-12T01:50:38.713Z,12.09
2019-05-12T01:53:08.351Z,12.06
2019-05-12T01:55:38.570Z,12.03
2019-05-12T01:58:08.384Z,12.31
2019-05-12T02:00:38.681Z,11.33
2019-05-12T02:03:09.066Z,12.19
2019-05-12T02:05:39.872Z,12.44
2019-05-12T02:08:12.319Z,11.25
2019-05-12T02:10:40.994Z,11.58
2019-05-12T02:13:09.947Z,12.55
2019-05-12T02:15:38.611Z,11.95
2019-05-12T02:18:09.141Z,11.80
2019-05-12T02:20:38.374Z,11.46
2019-05-12T02:23:08.875Z,12.00
2019-05-12T02:25:38.241Z,11.47
2019-05-12T02:28:09.134Z,10.78
2019-05-12T02:30:41.323Z,11.21
2019-05-12T02:33:07.775Z,11.35
2019-05-12T02:35:36.369Z,10.72
2019-05-12T02:38:05.416Z,11.69
2019-05-12T02:40:34.902Z,11.21
2019-05-12T02:43:05.396Z,11.88
2019-05-12T02:45:35.610Z,11.88
2019-05-12T02:48:05.419Z,12.12
2019-05-12T02:50:36.404Z,12.00
2019-05-12T02:53:06.185Z,12.38
2019-05-12T02:55:35.946Z,11.08
2019-05-12T02:58:05.972Z,11.94
2019-05-12T03:00:35.839Z,12.30
2019-05-12T03:03:06.226Z,12.83
2019-05-12T03:05:35.821Z,13.37
2019-05-12T03:08:05.205Z,13.32
2019-05-12T03:10:36.050Z,12.34
2019-05-12T03:13:04.915Z,12.56
2019-05-12T03:15:36.540Z,13.05
2019-05-12T03:18:06.293Z,13.07
2019-05-12T03:20:35.581Z,13.45
2019-05-12T03:23:05.854Z,11.64
2019-05-12T03:25:36.466Z,11.90
2019-05-12T03:28:08.896Z,12.37
2019-05-12T03:30:39.383Z,12.69
2019-05-12T03:33:10.407Z,12.92
2019-05-12T03:35:42.281Z,12.89
2019-05-12T03:38:07.352Z,13.14
2019-05-12T03:40:38.628Z,13.34
2019-05-12T03:43:06.598Z,12.20
2019-05-12T03:45:36.227Z,13.25
2019-05-12T03:48:05.492Z,13.07
2019-05-12T03:50:35.371Z,12.65
2019-05-12T03:53:09.918Z,12.72
2019-05-12T03:55:40.429Z,12.62
2019-05-12T03:58:06.003Z,11.58
2019-05-12T04:00:35.735Z,12.41
2019-05-12T04:03:05.249Z,12.14
2019-05-12T04:05:35.144Z,12.60
2019-05-12T04:08:05.452Z,11.17
2019-05-12T04:10:35.674Z,11.91
2019-05-12T04:13:05.031Z,11.19
2019-05-12T04:15:34.976Z,11.33
2019-05-12T04:18:05.711Z,12.25
2019-05-12T04:20:35.902Z,12.24
2019-05-12T04:23:06.156Z,12.86
2019-05-12T04:25:51.740Z,12.81
2019-05-12T04:28:05.863Z,13.18
2019-05-12T04:30:35.581Z,12.07
2019-05-12T04:33:05.325Z,12.59
2019-05-12T04:35:35.275Z,12.16
2019-05-12T04:38:05.105Z,12.05
2019-05-12T04:40:35.936Z,11.44
2019-05-12T04:43:06.255Z,12.55
2019-05-12T04:45:35.403Z,11.72
2019-05-12T04:48:05.577Z,13.08
2019-05-12T04:50:35.718Z,13.56
2019-05-12T04:53:06.255Z,13.55
2019-05-12T04:55:36.250Z,12.34
2019-05-12T04:58:05.683Z,11.64
2019-05-12T05:00:35.574Z,11.62
2019-05-12T05:03:05.519Z,12.39
2019-05-12T05:05:35.727Z,12.53
2019-05-12T05:08:05.377Z,13.43
2019-05-12T05:10:34.662Z,13.46
2019-05-12T05:13:05.184Z,13.14
2019-05-12T05:15:35.120Z,13.75
2019-05-12T05:18:06.303Z,13.02
2019-05-12T05:20:34.866Z,13.61
2019-05-12T05:23:04.241Z,11.95
2019-05-12T05:25:34.166Z,13.18
2019-05-12T05:28:03.950Z,13.71
2019-05-12T05:30:33.917Z,13.78
2019-05-12T05:33:04.564Z,13.64
2019-05-12T05:35:39.008Z,14.10
2019-05-12T05:38:04.727Z,14.28
2019-05-12T05:40:35.632Z,14.50
2019-05-12T05:43:12.505Z,15.20
2019-05-12T05:45:35.202Z,14.17
2019-05-12T05:48:05.606Z,13.49
2019-05-12T05:50:34.582Z,13.07
2019-05-12T05:53:03.930Z,13.33
2019-05-12T05:55:34.288Z,13.45
2019-05-12T05:58:08.454Z,13.72
2019-05-12T06:00:38.789Z,12.11
2019-05-12T06:03:05.730Z,13.75
2019-05-12T06:05:38.468Z,13.46
2019-05-12T06:10:40.620Z,12.37
2019-05-12T06:13:09.380Z,13.68
2019-05-12T06:15:40.800Z,13.99
2019-05-12T06:18:08.815Z,12.10
2019-05-12T06:20:38.314Z,13.77
2019-05-12T06:23:07.062Z,11.78
2019-05-12T06:25:45.938Z,13.08
2019-05-12T06:28:08.722Z,13.59
2019-05-12T06:33:13.817Z,13.23
2019-05-12T06:35:45.074Z,11.77
2019-05-12T06:38:13.600Z,12.90
2019-05-12T06:40:45.415Z,11.73
2019-05-12T06:43:13.905Z,12.27
2019-05-12T06:45:45.583Z,12.43
2019-05-12T06:48:14.018Z,13.26
2019-05-12T06:50:44.162Z,14.15
2019-05-12T06:53:13.961Z,13.02
2019-05-12T06:55:43.303Z,14.07
2019-05-12T06:58:14.042Z,13.75
2019-05-12T07:00:43.745Z,13.51
2019-05-12T07:03:14.305Z,14.07
2019-05-12T07:05:45.226Z,14.14
2019-05-12T07:08:17.859Z,12.55
2019-05-12T07:10:46.833Z,13.68
2019-05-12T07:13:22.817Z,13.94
2019-05-12T07:15:44.737Z,12.57
2019-05-12T07:18:17.672Z,13.49
2019-05-12T07:20:45.302Z,13.91
2019-05-12T07:23:14.370Z,14.07
2019-05-12T07:25:44.473Z,13.43
2019-05-12T07:28:14.416Z,13.53
2019-05-12T07:30:44.165Z,14.43
2019-05-12T07:33:14.572Z,14.62
2019-05-12T07:35:44.540Z,13.97
2019-05-12T07:38:20.860Z,14.05
2019-05-12T07:40:46.387Z,13.26
2019-05-12T07:43:20.344Z,14.31
2019-05-12T07:45:47.025Z,14.70
2019-05-12T07:48:15.893Z,15.26
2019-05-12T07:50:44.537Z,15.26
2019-05-12T07:53:14.482Z,15.30
2019-05-12T07:55:47.581Z,16.82
2019-05-12T07:58:18.489Z,17.82
2019-05-12T08:00:44.419Z,18.60
2019-05-12T08:03:19.128Z,18.05
2019-05-12T08:05:44.001Z,17.96
2019-05-12T08:08:14.512Z,17.04
2019-05-12T08:10:44.337Z,17.03
2019-05-12T08:13:14.871Z,15.68
2019-05-12T08:15:45.699Z,17.03
2019-05-12T08:18:14.111Z,18.13
2019-05-12T08:20:43.524Z,21.54
2019-05-12T08:23:14.070Z,22.21
2019-05-12T08:25:43.752Z,20.83
2019-05-12T08:28:18.318Z,20.30
2019-05-12T08:30:47.391Z,18.99
2019-05-12T08:33:14.582Z,19.63
2019-05-12T08:35:44.019Z,19.59
2019-05-12T08:38:14.507Z,20.98
2019-05-12T08:40:46.449Z,20.21
2019-05-12T08:43:14.865Z,20.56
2019-05-12T08:45:44.307Z,19.56
2019-05-12T08:48:21.434Z,17.08
2019-05-12T08:50:46.169Z,18.75
2019-05-12T08:53:20.456Z,20.90
2019-05-12T08:55:44.540Z,19.37
2019-05-12T08:58:29.628Z,18.87
2019-05-12T09:00:49.746Z,18.25
2019-05-12T09:03:20.227Z,17.47
2019-05-12T09:05:45.988Z,16.84
2019-05-12T09:08:16.184Z,16.65
2019-05-12T09:10:45.253Z,16.98
2019-05-12T09:13:14.518Z,16.79
2019-05-12T09:15:43.755Z,17.88
2019-05-12T09:18:14.528Z,18.01
2019-05-12T09:20:48.799Z,20.90
2019-05-12T09:23:13.812Z,20.97
2019-05-12T09:25:45.355Z,22.34
2019-05-12T09:28:13.871Z,22.74
2019-05-12T09:30:46.044Z,20.45
2019-05-12T09:33:14.009Z,20.01
2019-05-12T09:35:43.733Z,19.92
2019-05-12T09:38:21.284Z,21.32
2019-05-12T09:40:43.878Z,22.95
2019-05-12T09:43:13.763Z,21.17
2019-05-12T09:45:52.083Z,22.27
2019-05-12T09:48:14.130Z,21.38
2019-05-12T09:50:46.170Z,20.29
2019-05-12T09:53:14.370Z,20.63
2019-05-12T09:55:43.970Z,21.29
2019-05-12T09:58:15.806Z,22.05
2019-05-12T10:00:43.508Z,21.04
2019-05-12T10:03:13.877Z,20.17
2019-05-12T10:05:44.266Z,18.26
2019-05-12T10:08:13.887Z,20.50
2019-05-12T10:10:46.763Z,20.09
2019-05-12T10:13:14.271Z,20.19
2019-05-12T10:15:42.869Z,18.38
2019-05-12T10:18:12.073Z,18.93
2019-05-12T10:20:43.913Z,18.24
2019-05-12T10:23:18.266Z,18.74
2019-05-12T10:25:44.634Z,18.34
2019-05-12T10:28:15.785Z,20.10
2019-05-12T10:30:47.318Z,21.35
2019-05-12T10:33:13.893Z,19.22
2019-05-12T10:35:43.862Z,18.40
2019-05-12T10:38:13.647Z,18.12
2019-05-12T10:40:44.476Z,18.21
2019-05-12T10:43:12.905Z,20.36
2019-05-12T10:45:44.059Z,22.35
2019-05-12T10:48:14.138Z,24.47
2019-05-12T10:50:44.243Z,24.34
2019-05-12T10:53:15.802Z,21.65
2019-05-12T10:55:44.155Z,20.75
2019-05-12T10:58:14.538Z,19.22
2019-05-12T11:00:44.346Z,19.22
2019-05-12T11:03:15.446Z,18.29
2019-05-12T11:05:44.118Z,19.86
2019-05-12T11:08:14.268Z,21.42
2019-05-12T11:10:43.303Z,22.70
2019-05-12T11:13:14.527Z,24.36
2019-05-12T11:15:46.215Z,25.51
2019-05-12T11:18:20.640Z,23.84
2019-05-12T11:20:47.756Z,21.07
2019-05-12T11:23:16.412Z,21.70
2019-05-12T11:25:45.155Z,21.06
2019-05-12T11:28:14.163Z,20.78
2019-05-12T11:30:43.704Z,20.61
2019-05-12T11:33:12.536Z,19.45
2019-05-12T11:35:43.343Z,20.02
2019-05-12T11:38:13.474Z,19.84
2019-05-12T11:40:43.731Z,20.39
2019-05-12T11:43:14.312Z,20.65
2019-05-12T11:45:44.180Z,19.17
2019-05-12T11:48:14.366Z,19.36
2019-05-12T11:50:49.390Z,19.09
2019-05-12T11:53:13.870Z,19.91
2019-05-12T11:55:43.728Z,19.97
2019-05-12T11:58:12.554Z,19.93
2019-05-12T12:00:44.108Z,20.21
2019-05-12T12:03:17.000Z,19.30
2019-05-12T12:05:44.312Z,20.45
2019-05-12T12:08:14.514Z,20.10
2019-05-12T12:10:43.493Z,19.92
2019-05-12T12:13:14.107Z,19.60
2019-05-12T12:15:42.421Z,19.67
2019-05-12T12:18:13.452Z,19.74
2019-05-12T12:20:44.250Z,20.43
2019-05-12T12:23:14.079Z,19.34
2019-05-12T12:25:47.809Z,19.48
2019-05-12T12:28:13.716Z,19.51
2019-05-12T12:30:47.428Z,19.43
2019-05-12T12:33:14.371Z,20.35
2019-05-12T12:35:44.507Z,20.95
2019-05-12T12:38:14.227Z,19.35
2019-05-12T12:40:44.203Z,19.54
2019-05-12T12:43:13.754Z,19.81
2019-05-12T12:45:48.368Z,20.23
2019-05-12T12:48:19.195Z,20.94
2019-05-12T12:50:47.425Z,20.28
2019-05-12T12:53:16.075Z,20.08
2019-05-12T12:55:45.239Z,18.45
2019-05-12T12:58:14.184Z,18.03
2019-05-12T13:00:47.819Z,18.56
2019-05-12T13:03:14.440Z,19.02
2019-05-12T13:05:43.837Z,20.14
2019-05-12T13:08:12.598Z,19.09
2019-05-12T13:10:49.481Z,19.58
2019-05-12T13:13:14.217Z,19.77
2019-05-12T13:15:44.396Z,20.03
2019-05-12T13:18:17.451Z,20.88
2019-05-12T13:20:43.981Z,19.43
2019-05-12T13:23:14.142Z,18.18
2019-05-12T13:25:50.418Z,19.03
2019-05-12T13:28:18.864Z,19.10
2019-05-12T13:30:48.826Z,20.25
2019-05-12T13:33:18.095Z,19.89
2019-05-12T13:35:44.684Z,19.57
2019-05-12T13:38:14.498Z,19.95
2019-05-12T13:40:44.217Z,18.87
2019-05-12T13:43:15.466Z,19.31
2019-05-12T13:45:44.021Z,19.27
2019-05-12T13:48:15.792Z,19.29
2019-05-12T13:50:43.436Z,20.12
2019-05-12T13:53:13.853Z,18.80
2019-05-12T13:55:47.445Z,19.22
2019-05-12T13:58:13.603Z,17.57
2019-05-12T14:00:50.895Z,18.29
2019-05-12T14:03:13.987Z,19.87
2019-05-12T14:05:50.371Z,19.67
2019-05-12T14:08:14.613Z,19.68
2019-05-12T14:10:52.874Z,19.16
2019-05-12T14:13:14.105Z,19.47
2019-05-12T14:15:44.320Z,19.57
2019-05-12T14:18:16.459Z,19.12
2019-05-12T14:20:45.194Z,18.39
2019-05-12T14:23:14.920Z,19.68
2019-05-12T14:25:43.856Z,19.75
2019-05-12T14:28:16.230Z,18.25
2019-05-12T14:30:49.737Z,17.58
2019-05-12T14:33:13.449Z,18.41
2019-05-12T14:35:45.365Z,17.85
2019-05-12T14:38:14.236Z,17.85
2019-05-12T14:40:42.909Z,17.56
2019-05-12T14:43:16.812Z,19.00
2019-05-12T14:45:43.913Z,19.55
2019-05-12T14:48:13.702Z,19.96
2019-05-12T14:50:44.149Z,18.74
2019-05-12T14:53:14.459Z,18.66
2019-05-12T14:55:43.354Z,18.88
2019-05-12T14:58:15.741Z,18.26
2019-05-12T15:00:44.580Z,17.17
2019-05-12T15:03:16.154Z,18.54
2019-05-12T15:05:47.236Z,18.01
2019-05-12T15:08:20.250Z,17.54
2019-05-12T15:10:44.141Z,18.83
2019-05-12T15:13:13.908Z,18.81
2019-05-12T15:15:44.097Z,18.98
2019-05-12T15:18:15.513Z,18.58
2019-05-12T15:20:49.782Z,18.25
2019-05-12T15:23:14.416Z,18.98
2019-05-12T15:25:43.383Z,19.14
2019-05-12T15:28:14.433Z,18.41
2019-05-12T15:30:43.603Z,17.69
2019-05-12T15:33:13.928Z,18.90
2019-05-12T15:35:43.904Z,18.68
2019-05-12T15:38:14.900Z,18.98
2019-05-12T15:40:43.447Z,17.42
2019-05-12T15:43:13.817Z,17.82
2019-05-12T15:45:43.648Z,18.53
2019-05-12T15:48:14.568Z,17.97
2019-05-12T15:50:45.635Z,19.57
2019-05-12T15:53:21.793Z,19.09
2019-05-12T15:55:43.956Z,19.04
2019-05-12T15:58:14.201Z,19.42
2019-05-12T16:00:43.847Z,19.30
2019-05-12T16:03:12.680Z,19.42
2019-05-12T16:05:41.300Z,19.33
2019-05-12T16:08:09.953Z,18.24
2019-05-12T16:10:38.855Z,17.04
2019-05-12T16:13:07.779Z,17.18
2019-05-12T16:15:36.646Z,18.23
2019-05-12T16:18:09.862Z,18.34
2019-05-12T16:20:35.997Z,17.53
2019-05-12T16:23:04.711Z,18.27
2019-05-12T16:25:34.167Z,18.44
2019-05-12T16:28:07.572Z,17.32
2019-05-12T16:30:33.968Z,17.30
2019-05-12T16:33:03.599Z,18.49
2019-05-12T16:35:34.483Z,17.53
2019-05-12T16:38:05.852Z,18.31
2019-05-12T16:40:34.427Z,18.34
2019-05-12T16:43:03.968Z,19.07
2019-05-12T16:45:34.066Z,18.50
2019-05-12T16:48:05.599Z,16.98
2019-05-12T16:50:34.543Z,17.99
2019-05-12T16:53:03.382Z,18.29
2019-05-12T16:55:44.948Z,18.57
2019-05-12T16:58:03.960Z,18.59
2019-05-12T17:00:33.872Z,18.10
2019-05-12T17:03:03.768Z,18.13
2019-05-12T17:05:33.546Z,16.75
2019-05-12T17:08:04.221Z,17.40
2019-05-12T17:10:33.788Z,17.25
2019-05-12T17:13:07.484Z,17.86
2019-05-12T17:15:33.816Z,17.21
2019-05-12T17:18:04.358Z,18.22
2019-05-12T17:20:33.455Z,17.56
2019-05-12T17:23:03.439Z,17.64
2019-05-12T17:25:34.216Z,17.56
2019-05-12T17:28:03.673Z,17.69
2019-05-12T17:30:34.384Z,17.27
2019-05-12T17:33:05.242Z,16.85
2019-05-12T17:35:35.025Z,17.48
2019-05-12T17:38:04.464Z,17.53
2019-05-12T17:40:33.938Z,18.30
2019-05-12T17:43:06.804Z,18.32
2019-05-12T17:45:33.218Z,17.71
2019-05-12T17:48:05.930Z,18.07
2019-05-12T17:50:34.442Z,17.92
2019-05-12T17:53:04.544Z,17.85
2019-05-12T17:55:33.489Z,17.96
2019-05-12T17:58:04.115Z,17.98
2019-05-12T18:00:33.619Z,18.09
2019-05-12T18:03:15.511Z,18.07
2019-05-12T18:05:33.944Z,17.83
2019-05-12T18:08:04.238Z,17.10
2019-05-12T18:10:37.862Z,17.22
2019-05-12T18:13:03.992Z,17.63
2019-05-12T18:15:37.916Z,17.96
2019-05-12T18:18:04.205Z,17.71
2019-05-12T18:20:40.071Z,17.91
2019-05-12T18:23:04.381Z,17.69
2019-05-12T18:25:36.523Z,17.49
2019-05-12T18:28:03.975Z,17.70
2019-05-12T18:30:32.637Z,17.90
2019-05-12T18:33:08.709Z,17.49
2019-05-12T18:35:31.848Z,16.97
2019-05-12T18:38:00.560Z,16.78
2019-05-12T18:40:29.376Z,17.10
2019-05-12T18:42:58.099Z,16.89
2019-05-12T18:45:27.020Z,16.47
2019-05-12T18:47:55.708Z,16.06
2019-05-12T18:50:27.091Z,15.89
2019-05-12T18:52:56.296Z,15.89
2019-05-12T18:55:29.155Z,15.71
2019-05-12T18:57:55.791Z,15.65
2019-05-12T19:00:25.898Z,15.80
2019-05-12T19:02:59.689Z,15.80
2019-05-12T19:05:30.582Z,16.18
2019-05-12T19:07:56.338Z,15.88
2019-05-12T19:10:25.090Z,15.52
2019-05-12T19:13:01.157Z,15.52
2019-05-12T19:15:24.473Z,15.20
2019-05-12T19:17:54.197Z,15.49
2019-05-12T19:20:24.061Z,15.60
2019-05-12T19:22:59.358Z,15.60
2019-05-12T19:25:23.995Z,15.67
2019-05-12T19:28:04.560Z,15.62
2019-05-12T19:30:25.453Z,15.55
2019-05-12T19:32:54.747Z,16.41
2019-05-12T19:35:23.824Z,16.37
2019-05-12T19:37:53.814Z,15.87
2019-05-12T19:40:23.232Z,16.19
2019-05-12T19:42:53.679Z,15.83
2019-05-12T19:45:24.892Z,14.88
2019-05-12T19:47:53.539Z,14.73
2019-05-12T19:50:22.321Z,14.08
2019-05-12T19:52:50.998Z,14.05
2019-05-12T19:55:20.238Z,13.61
2019-05-12T19:57:50.173Z,13.69
2019-05-12T20:00:19.259Z,14.07
2019-05-12T20:02:48.249Z,14.35
2019-05-12T20:05:17.755Z,14.73
2019-05-12T20:07:46.396Z,14.54
2019-05-12T20:10:16.559Z,14.70
2019-05-12T20:12:57.055Z,14.70
2019-05-12T20:15:30.174Z,14.56
2019-05-12T20:17:57.252Z,13.77
2019-05-12T20:20:35.798Z,14.31
2019-05-12T20:22:56.293Z,14.72
2019-05-12T20:25:24.896Z,14.57
2019-05-12T20:27:56.118Z,14.90
2019-05-12T20:30:24.229Z,14.83
2019-05-12T20:32:54.038Z,14.76
2019-05-12T20:35:22.937Z,15.45
2019-05-12T20:37:54.520Z,15.56
2019-05-12T20:40:23.919Z,15.15
2019-05-12T20:43:07.383Z,15.71
2019-05-12T20:45:25.824Z,15.47
2019-05-12T20:47:53.811Z,15.79
2019-05-12T20:50:24.322Z,15.38
2019-05-12T20:52:58.807Z,15.68
2019-05-12T20:55:23.553Z,15.28
2019-05-12T20:57:56.032Z,15.82
2019-05-12T21:00:24.404Z,15.62
2019-05-12T21:02:53.947Z,15.73
2019-05-12T21:05:23.765Z,15.92
2019-05-12T21:07:55.879Z,15.23
2019-05-12T21:10:26.407Z,15.79
2019-05-12T21:12:54.288Z,15.37
2019-05-12T21:15:27.748Z,14.89
2019-05-12T21:18:02.586Z,15.26
2019-05-12T21:20:24.370Z,15.18
2019-05-12T21:22:53.823Z,14.95
2019-05-12T21:25:23.360Z,14.70
2019-05-12T21:27:53.732Z,15.30
2019-05-12T21:30:24.658Z,15.32
2019-05-12T21:33:01.127Z,15.11
2019-05-12T21:35:26.018Z,14.65
2019-05-12T21:37:54.784Z,14.96
2019-05-12T21:40:30.207Z,14.68
2019-05-12T21:42:54.367Z,15.11
2019-05-12T21:45:26.589Z,14.98
2019-05-12T21:47:54.508Z,14.76
2019-05-12T21:50:32.576Z,14.47
2019-05-12T21:52:59.424Z,14.80
2019-05-12T21:55:26.677Z,14.43
2019-05-12T21:57:55.473Z,13.67
2019-05-12T22:00:29.137Z,13.49
2019-05-12T22:03:02.553Z,14.23
2019-05-12T22:05:47.964Z,14.00
2019-05-12T22:07:58.800Z,14.35
2019-05-12T22:10:30.733Z,14.54
2019-05-12T22:13:00.598Z,13.88
2019-05-12T22:15:29.651Z,14.10
2019-05-12T22:18:04.211Z,13.58
2019-05-12T22:20:32.306Z,13.91
2019-05-12T22:23:09.149Z,13.99
2019-05-12T22:25:34.531Z,13.84
2019-05-12T22:28:07.940Z,13.93
2019-05-12T22:30:34.934Z,13.89
2019-05-12T22:33:08.634Z,13.72
2019-05-12T22:35:34.274Z,13.83
2019-05-12T22:38:09.386Z,13.65
2019-05-12T22:40:33.454Z,13.84
2019-05-12T22:43:06.625Z,13.47
2019-05-12T22:45:44.448Z,13.17
2019-05-12T22:48:04.169Z,12.88
2019-05-12T22:50:35.174Z,12.80
2019-05-12T22:53:04.463Z,12.54
2019-05-12T22:55:36.044Z,12.10
2019-05-12T22:58:04.356Z,12.24
2019-05-12T23:00:34.133Z,12.24
2019-05-12T23:03:11.581Z,12.29
2019-05-12T23:05:33.797Z,12.03
2019-05-12T23:08:05.935Z,12.18
2019-05-12T23:10:33.119Z,12.07
2019-05-12T23:13:04.825Z,12.50
2019-05-12T23:15:33.495Z,11.74
2019-05-12T23:18:04.203Z,12.16
2019-05-12T23:20:33.330Z,12.63
2019-05-12T23:23:03.864Z,12.83
2019-05-12T23:25:33.761Z,12.73
2019-05-12T23:28:08.379Z,12.78
2019-05-12T23:30:32.840Z,12.53
2019-05-12T23:33:03.814Z,12.47
2019-05-12T23:35:34.833Z,12.61
2019-05-12T23:38:04.430Z,12.63
2019-05-12T23:40:34.529Z,12.55
2019-05-12T23:43:04.140Z,12.67
2019-05-12T23:45:34.010Z,12.16
2019-05-12T23:48:03.686Z,12.15
2019-05-12T23:50:32.736Z,12.35
2019-05-12T23:53:03.841Z,12.13
2019-05-12T23:55:34.740Z,11.64
2019-05-12T23:58:04.223Z,12.13
